Columbus/Fort Benning, Georgia
Current Conditions -  °F | °C
As of 3:23 AM on Sunday 21 Dec 2014 (Local Time) from KLSF Reporting Station
Overcast Overcast  
Wind Chill: 52°   Ceiling: 600
Heat Index: 52°   Visibility: 10mi
Dew Point: 50°   Wind: 5mph
Humidity: 94%   Direction: 60°ENE
Pressure: 30.16"   Gusts: NA
Location:  32.34°N, 84.93°W
Report Text: KLSF 210823Z AUTO 06004KT 10SM R33/5500FT OVC006 11/10 A3016 RMK AO2
Loading
Personal Weather Stations






























Interactive Weather Map New forecast layout! Learn more

10-Day Weather Forecast

Advertisements
Track Severe Weather on mobile